sensor_id;sensor_type;location;lat;lon;timestamp;pressure;altitude;pressure_sealevel;temperature;humidity
64876;BME280;51369;49.862;9.908;2023-03-31T00:01:28;97636.41;;;11.87;74.13
64876;BME280;51369;49.862;9.908;2023-03-31T00:03:54;97636.50;;;11.86;74.64
64876;BME280;51369;49.862;9.908;2023-03-31T00:06:28;97628.56;;;11.83;74.23
64876;BME280;51369;49.862;9.908;2023-03-31T00:08:53;97617.94;;;11.80;74.20
64876;BME280;51369;49.862;9.908;2023-03-31T00:11:20;97623.50;;;11.77;74.71
64876;BME280;51369;49.862;9.908;2023-03-31T00:13:46;97612.84;;;11.73;75.04
64876;BME280;51369;49.862;9.908;2023-03-31T00:16:12;97608.59;;;11.69;75.13
64876;BME280;51369;49.862;9.908;2023-03-31T00:18:37;97614.09;;;11.68;74.92
64876;BME280;51369;49.862;9.908;2023-03-31T00:21:13;97604.25;;;11.67;75.61
64876;BME280;51369;49.862;9.908;2023-03-31T00:24:10;97601.44;;;11.68;75.32
64876;BME280;51369;49.862;9.908;2023-03-31T00:26:34;97598.84;;;11.67;75.04
64876;BME280;51369;49.862;9.908;2023-03-31T00:29:02;97601.53;;;11.67;75.84
64876;BME280;51369;49.862;9.908;2023-03-31T00:31:28;97588.97;;;11.66;75.08
64876;BME280;51369;49.862;9.908;2023-03-31T00:33:54;97584.44;;;11.66;75.67
64876;BME280;51369;49.862;9.908;2023-03-31T00:36:20;97578.16;;;11.66;75.09
64876;BME280;51369;49.862;9.908;2023-03-31T00:38:46;97573.72;;;11.65;75.07
64876;BME280;51369;49.862;9.908;2023-03-31T00:41:12;97567.44;;;11.64;75.36
64876;BME280;51369;49.862;9.908;2023-03-31T00:43:38;97557.59;;;11.63;76.19
64876;BME280;51369;49.862;9.908;2023-03-31T00:48:38;97550.44;;;11.62;75.95
64876;BME280;51369;49.862;9.908;2023-03-31T00:51:06;97547.75;;;11.62;75.97
64876;BME280;51369;49.862;9.908;2023-03-31T00:53:32;97541.47;;;11.62;75.82
64876;BME280;51369;49.862;9.908;2023-03-31T00:56:05;97541.66;;;11.59;75.81
64876;BME280;51369;49.862;9.908;2023-03-31T00:58:31;97532.66;;;11.58;75.93
64876;BME280;51369;49.862;9.908;2023-03-31T01:00:59;97532.66;;;11.58;76.13
64876;BME280;51369;49.862;9.908;2023-03-31T01:03:28;97526.47;;;11.56;76.45
64876;BME280;51369;49.862;9.908;2023-03-31T01:06:05;97519.44;;;11.54;76.80
64876;BME280;51369;49.862;9.908;2023-03-31T01:08:35;97520.28;;;11.54;76.14
64876;BME280;51369;49.862;9.908;2023-03-31T01:11:06;97514.03;;;11.54;76.77
64876;BME280;51369;49.862;9.908;2023-03-31T01:13:35;97506.78;;;11.54;75.88
64876;BME280;51369;49.862;9.908;2023-03-31T01:16:01;97512.19;;;11.54;76.03
64876;BME280;51369;49.862;9.908;2023-03-31T01:18:27;97507.56;;;11.56;76.37
64876;BME280;51369;49.862;9.908;2023-03-31T01:23:55;97505.53;;;11.60;76.37
64876;BME280;51369;49.862;9.908;2023-03-31T01:38:39;97474.00;;;11.74;76.56
64876;BME280;51369;49.862;9.908;2023-03-31T01:43:45;97470.16;;;11.79;76.29
64876;BME280;51369;49.862;9.908;2023-03-31T01:51:58;97452.00;;;11.81;76.41
64876;BME280;51369;49.862;9.908;2023-03-31T01:57:11;97457.31;;;11.82;76.10
64876;BME280;51369;49.862;9.908;2023-03-31T01:59:58;97446.50;;;11.82;76.03
64876;BME280;51369;49.862;9.908;2023-03-31T02:02:31;97440.13;;;11.83;76.12
64876;BME280;51369;49.862;9.908;2023-03-31T02:05:16;97440.13;;;11.83;75.90
64876;BME280;51369;49.862;9.908;2023-03-31T02:07:48;97441.88;;;11.84;75.69
64876;BME280;51369;49.862;9.908;2023-03-31T02:10:17;97432.78;;;11.85;76.53
64876;BME280;51369;49.862;9.908;2023-03-31T02:12:45;97427.38;;;11.85;75.87
64876;BME280;51369;49.862;9.908;2023-03-31T02:15:16;97425.53;;;11.86;76.44
64876;BME280;51369;49.862;9.908;2023-03-31T02:17:45;97419.16;;;11.87;75.79
64876;BME280;51369;49.862;9.908;2023-03-31T02:20:14;97419.28;;;11.85;75.96
64876;BME280;51369;49.862;9.908;2023-03-31T02:22:45;97403.13;;;11.84;76.36
64876;BME280;51369;49.862;9.908;2023-03-31T02:25:14;97400.44;;;11.84;76.46
64876;BME280;51369;49.862;9.908;2023-03-31T02:27:43;97395.13;;;11.82;76.66
64876;BME280;51369;49.862;9.908;2023-03-31T02:30:12;97399.66;;;11.82;75.83
64876;BME280;51369;49.862;9.908;2023-03-31T02:32:40;97388.84;;;11.82;76.59
64876;BME280;51369;49.862;9.908;2023-03-31T02:35:09;97382.47;;;11.83;76.65
64876;BME280;51369;49.862;9.908;2023-03-31T02:37:37;97374.34;;;11.83;76.65
64876;BME280;51369;49.862;9.908;2023-03-31T02:40:07;97374.44;;;11.81;76.23
64876;BME280;51369;49.862;9.908;2023-03-31T02:42:37;97374.34;;;11.83;76.17
64876;BME280;51369;49.862;9.908;2023-03-31T02:45:04;97363.53;;;11.83;76.10
64876;BME280;51369;49.862;9.908;2023-03-31T02:47:30;97365.28;;;11.84;76.14
64876;BME280;51369;49.862;9.908;2023-03-31T02:49:58;97373.28;;;11.85;76.07
64876;BME280;51369;49.862;9.908;2023-03-31T02:52:46;97370.59;;;11.85;76.42
64876;BME280;51369;49.862;9.908;2023-03-31T02:55:27;97371.56;;;11.84;75.98
64876;BME280;51369;49.862;9.908;2023-03-31T03:01:05;97370.59;;;11.85;75.61
64876;BME280;51369;49.862;9.908;2023-03-31T03:03:41;97362.38;;;11.87;75.89
64876;BME280;51369;49.862;9.908;2023-03-31T03:14:44;97317.84;;;11.92;75.08
64876;BME280;51369;49.862;9.908;2023-03-31T03:20:23;97318.41;;;11.97;75.23
64876;BME280;51369;49.862;9.908;2023-03-31T03:22:48;97308.47;;;11.98;74.94
64876;BME280;51369;49.862;9.908;2023-03-31T03:25:14;97308.34;;;11.99;74.91
64876;BME280;51369;49.862;9.908;2023-03-31T03:27:45;97301.09;;;12.00;74.30
64876;BME280;51369;49.862;9.908;2023-03-31T03:30:12;97302.84;;;12.01;74.64
64876;BME280;51369;49.862;9.908;2023-03-31T03:32:38;97294.63;;;12.02;74.71
64876;BME280;51369;49.862;9.908;2023-03-31T03:35:06;97290.09;;;12.03;75.00
64876;BME280;51369;49.862;9.908;2023-03-31T03:37:31;97290.09;;;12.03;74.59
64876;BME280;51369;49.862;9.908;2023-03-31T03:39:57;97286.50;;;12.02;74.91
64876;BME280;51369;49.862;9.908;2023-03-31T03:42:22;97277.53;;;12.02;75.60
64876;BME280;51369;49.862;9.908;2023-03-31T03:44:48;97274.94;;;12.00;75.60
64876;BME280;51369;49.862;9.908;2023-03-31T03:47:14;97273.19;;;11.99;75.41
64876;BME280;51369;49.862;9.908;2023-03-31T03:49:39;97273.28;;;11.98;75.62
64876;BME280;51369;49.862;9.908;2023-03-31T03:52:05;97267.22;;;11.94;76.20
64876;BME280;51369;49.862;9.908;2023-03-31T03:54:31;97263.66;;;11.94;75.79
64876;BME280;51369;49.862;9.908;2023-03-31T03:56:57;97257.56;;;11.90;76.50
64876;BME280;51369;49.862;9.908;2023-03-31T03:59:22;97248.78;;;11.87;77.11
64876;BME280;51369;49.862;9.908;2023-03-31T04:01:48;97241.84;;;11.83;76.45
64876;BME280;51369;49.862;9.908;2023-03-31T04:04:14;97230.38;;;11.79;77.73
64876;BME280;51369;49.862;9.908;2023-03-31T04:06:40;97235.16;;;11.74;77.77
64876;BME280;51369;49.862;9.908;2023-03-31T04:09:07;97222.81;;;11.70;78.28
64876;BME280;51369;49.862;9.908;2023-03-31T04:11:33;97219.34;;;11.68;78.02
64876;BME280;51369;49.862;9.908;2023-03-31T04:13:58;97214.16;;;11.65;78.24
64876;BME280;51369;49.862;9.908;2023-03-31T04:16:24;97209.81;;;11.62;78.21
64876;BME280;51369;49.862;9.908;2023-03-31T04:18:51;97206.53;;;11.57;78.53
64876;BME280;51369;49.862;9.908;2023-03-31T04:21:21;97196.78;;;11.55;78.22
64876;BME280;51369;49.862;9.908;2023-03-31T04:23:51;97199.59;;;11.53;79.08
64876;BME280;51369;49.862;9.908;2023-03-31T04:26:24;97193.41;;;11.51;78.60
64876;BME280;51369;49.862;9.908;2023-03-31T04:28:56;97200.66;;;11.51;78.97
64876;BME280;51369;49.862;9.908;2023-03-31T04:31:24;97203.47;;;11.49;79.47
64876;BME280;51369;49.862;9.908;2023-03-31T04:33:54;97190.91;;;11.48;79.26
64876;BME280;51369;49.862;9.908;2023-03-31T04:36:20;97193.72;;;11.47;79.74
64876;BME280;51369;49.862;9.908;2023-03-31T04:38:48;97179.44;;;11.45;79.80
64876;BME280;51369;49.862;9.908;2023-03-31T04:41:21;97166.88;;;11.44;79.67
64876;BME280;51369;49.862;9.908;2023-03-31T04:43:47;97159.75;;;11.43;80.37
64876;BME280;51369;49.862;9.908;2023-03-31T04:46:12;97159.75;;;11.43;79.63
64876;BME280;51369;49.862;9.908;2023-03-31T04:48:38;97142.78;;;11.40;80.35
64876;BME280;51369;49.862;9.908;2023-03-31T04:51:04;97122.97;;;11.40;80.45
64876;BME280;51369;49.862;9.908;2023-03-31T04:53:30;97126.66;;;11.39;79.48
64876;BME280;51369;49.862;9.908;2023-03-31T04:55:55;97137.56;;;11.37;79.61
64876;BME280;51369;49.862;9.908;2023-03-31T04:58:21;97144.81;;;11.37;79.56
64876;BME280;51369;49.862;9.908;2023-03-31T05:00:47;97141.25;;;11.36;79.33
64876;BME280;51369;49.862;9.908;2023-03-31T05:03:12;97132.25;;;11.36;79.35
64876;BME280;51369;49.862;9.908;2023-03-31T05:05:38;97131.41;;;11.35;79.53
64876;BME280;51369;49.862;9.908;2023-03-31T05:08:03;97130.53;;;11.35;80.08
64876;BME280;51369;49.862;9.908;2023-03-31T05:10:29;97114.31;;;11.35;79.53
64876;BME280;51369;49.862;9.908;2023-03-31T05:12:55;97107.19;;;11.34;79.75
64876;BME280;51369;49.862;9.908;2023-03-31T05:15:20;97102.53;;;11.36;79.38
64876;BME280;51369;49.862;9.908;2023-03-31T05:17:46;97100.69;;;11.36;80.07
64876;BME280;51369;49.862;9.908;2023-03-31T05:20:12;97098.09;;;11.35;79.58
64876;BME280;51369;49.862;9.908;2023-03-31T05:22:39;97092.69;;;11.35;79.84
64876;BME280;51369;49.862;9.908;2023-03-31T05:25:07;97088.16;;;11.35;79.42
64876;BME280;51369;49.862;9.908;2023-03-31T05:27:33;97087.19;;;11.36;79.35
64876;BME280;51369;49.862;9.908;2023-03-31T05:30:00;97082.66;;;11.37;79.28
64876;BME280;51369;49.862;9.908;2023-03-31T05:32:26;97073.69;;;11.36;79.26
64876;BME280;51369;49.862;9.908;2023-03-31T05:34:52;97074.56;;;11.37;79.26
64876;BME280;51369;49.862;9.908;2023-03-31T05:37:23;97072.72;;;11.37;79.61
64876;BME280;51369;49.862;9.908;2023-03-31T05:39:49;97078.97;;;11.38;78.48
64876;BME280;51369;49.862;9.908;2023-03-31T05:42:15;97064.50;;;11.39;79.19
64876;BME280;51369;49.862;9.908;2023-03-31T05:44:40;97064.50;;;11.39;79.06
64876;BME280;51369;49.862;9.908;2023-03-31T05:47:05;97069.81;;;11.40;78.31
64876;BME280;51369;49.862;9.908;2023-03-31T05:49:31;97072.50;;;11.40;78.99
64876;BME280;51369;49.862;9.908;2023-03-31T05:51:57;97075.13;;;11.42;79.25
64876;BME280;51369;49.862;9.908;2023-03-31T05:54:22;97072.41;;;11.42;78.65
64876;BME280;51369;49.862;9.908;2023-03-31T05:56:47;97077.81;;;11.42;78.73
64876;BME280;51369;49.862;9.908;2023-03-31T05:59:13;97085.91;;;11.42;78.91
64876;BME280;51369;49.862;9.908;2023-03-31T06:01:38;97078.88;;;11.39;79.20
64876;BME280;51369;49.862;9.908;2023-03-31T06:04:04;97078.03;;;11.39;79.46
64876;BME280;51369;49.862;9.908;2023-03-31T06:06:29;97079.94;;;11.37;80.19
64876;BME280;51369;49.862;9.908;2023-03-31T06:08:57;97063.94;;;11.34;80.32
64876;BME280;51369;49.862;9.908;2023-03-31T06:11:22;97073.03;;;11.33;80.28
64876;BME280;51369;49.862;9.908;2023-03-31T06:13:49;97081.22;;;11.31;80.86
64876;BME280;51369;49.862;9.908;2023-03-31T06:16:15;97069.66;;;11.29;81.33
64876;BME280;51369;49.862;9.908;2023-03-31T06:18:41;97067.06;;;11.28;81.62
64876;BME280;51369;49.862;9.908;2023-03-31T06:21:07;97073.31;;;11.28;81.36
64876;BME280;51369;49.862;9.908;2023-03-31T06:23:35;97068.88;;;11.27;81.26
64876;BME280;51369;49.862;9.908;2023-03-31T06:26:03;97072.56;;;11.26;80.94
64876;BME280;51369;49.862;9.908;2023-03-31T06:28:29;97069.97;;;11.25;81.71
64876;BME280;51369;49.862;9.908;2023-03-31T06:31:02;97062.06;;;11.22;81.37
64876;BME280;51369;49.862;9.908;2023-03-31T06:33:27;97059.34;;;11.22;81.81
64876;BME280;51369;49.862;9.908;2023-03-31T06:35:57;97061.28;;;11.20;82.07
64876;BME280;51369;49.862;9.908;2023-03-31T06:38:24;97064.00;;;11.20;81.78
64876;BME280;51369;49.862;9.908;2023-03-31T06:40:49;97054.16;;;11.19;81.36
64876;BME280;51369;49.862;9.908;2023-03-31T06:43:15;97047.03;;;11.18;81.76
64876;BME280;51369;49.862;9.908;2023-03-31T06:45:40;97039.00;;;11.16;81.63
64876;BME280;51369;49.862;9.908;2023-03-31T06:48:05;97031.00;;;11.15;81.59
64876;BME280;51369;49.862;9.908;2023-03-31T06:50:31;97014.91;;;11.13;81.25
64876;BME280;51369;49.862;9.908;2023-03-31T06:52:56;97015.88;;;11.12;81.27
64876;BME280;51369;49.862;9.908;2023-03-31T06:55:23;97007.00;;;11.10;81.28
64876;BME280;51369;49.862;9.908;2023-03-31T06:57:49;97008.94;;;11.08;81.72
64876;BME280;51369;49.862;9.908;2023-03-31T07:00:15;96997.19;;;11.09;82.50
64876;BME280;51369;49.862;9.908;2023-03-31T07:02:40;96990.91;;;11.08;82.19
64876;BME280;51369;49.862;9.908;2023-03-31T07:05:06;96984.53;;;11.09;82.25
64876;BME280;51369;49.862;9.908;2023-03-31T07:07:32;96975.47;;;11.11;83.08
64876;BME280;51369;49.862;9.908;2023-03-31T07:09:58;96964.75;;;11.09;82.05
64876;BME280;51369;49.862;9.908;2023-03-31T07:12:23;96960.22;;;11.09;82.00
64876;BME280;51369;49.862;9.908;2023-03-31T07:14:49;96953.84;;;11.11;82.51
64876;BME280;51369;49.862;9.908;2023-03-31T07:17:15;96947.59;;;11.10;82.71
64876;BME280;51369;49.862;9.908;2023-03-31T07:19:40;96934.94;;;11.11;82.83
64876;BME280;51369;49.862;9.908;2023-03-31T07:22:07;96929.56;;;11.11;81.71
64876;BME280;51369;49.862;9.908;2023-03-31T07:24:32;96926.84;;;11.11;82.45
64876;BME280;51369;49.862;9.908;2023-03-31T07:26:58;96927.72;;;11.11;83.07
64876;BME280;51369;49.862;9.908;2023-03-31T07:29:23;96926.84;;;11.11;82.78
64876;BME280;51369;49.862;9.908;2023-03-31T07:31:48;96910.66;;;11.11;82.92
64876;BME280;51369;49.862;9.908;2023-03-31T07:34:15;96916.03;;;11.11;82.49
64876;BME280;51369;49.862;9.908;2023-03-31T07:36:40;96902.53;;;11.11;82.31
64876;BME280;51369;49.862;9.908;2023-03-31T07:39:06;96900.72;;;11.11;83.20
64876;BME280;51369;49.862;9.908;2023-03-31T07:41:32;96888.06;;;11.12;83.21
64876;BME280;51369;49.862;9.908;2023-03-31T07:43:57;96896.06;;;11.13;83.81
64876;BME280;51369;49.862;9.908;2023-03-31T07:46:26;96892.28;;;11.16;83.30
64876;BME280;51369;49.862;9.908;2023-03-31T07:48:53;96901.16;;;11.18;83.29
64876;BME280;51369;49.862;9.908;2023-03-31T07:51:22;96894.69;;;11.20;84.08
64876;BME280;51369;49.862;9.908;2023-03-31T07:53:48;96903.53;;;11.22;83.42
64876;BME280;51369;49.862;9.908;2023-03-31T07:56:20;96906.13;;;11.24;83.62
64876;BME280;51369;49.862;9.908;2023-03-31T07:58:46;96884.53;;;11.24;83.45
64876;BME280;51369;49.862;9.908;2023-03-31T08:01:16;96862.91;;;11.24;84.57
64876;BME280;51369;49.862;9.908;2023-03-31T08:03:42;96860.09;;;11.25;83.60
64876;BME280;51369;49.862;9.908;2023-03-31T08:06:08;96852.66;;;11.29;84.63
64876;BME280;51369;49.862;9.908;2023-03-31T08:08:33;96851.56;;;11.31;83.79
64876;BME280;51369;49.862;9.908;2023-03-31T08:10:58;96843.16;;;11.36;84.51
64876;BME280;51369;49.862;9.908;2023-03-31T08:13:24;96834.72;;;11.40;84.10
64876;BME280;51369;49.862;9.908;2023-03-31T08:15:50;96824.44;;;11.46;84.67
64876;BME280;51369;49.862;9.908;2023-03-31T08:18:16;96830.50;;;11.49;84.99
64876;BME280;51369;49.862;9.908;2023-03-31T08:20:42;96827.25;;;11.57;84.98
64876;BME280;51369;49.862;9.908;2023-03-31T08:23:07;96842.94;;;11.64;85.53
64876;BME280;51369;49.862;9.908;2023-03-31T08:25:36;96839.78;;;11.70;84.15
64876;BME280;51369;49.862;9.908;2023-03-31T08:28:02;96840.25;;;11.77;84.77
64876;BME280;51369;49.862;9.908;2023-03-31T08:30:27;96833.53;;;11.83;85.22
64876;BME280;51369;49.862;9.908;2023-03-31T08:32:52;96831.34;;;11.88;84.69
64876;BME280;51369;49.862;9.908;2023-03-31T08:35:18;96830.91;;;11.94;84.66
64876;BME280;51369;49.862;9.908;2023-03-31T08:37:43;96821.59;;;11.98;84.89
64876;BME280;51369;49.862;9.908;2023-03-31T08:40:17;96828.50;;;12.02;84.51
64876;BME280;51369;49.862;9.908;2023-03-31T08:42:51;96823.00;;;12.03;83.27
64876;BME280;51369;49.862;9.908;2023-03-31T08:45:20;96827.31;;;12.06;82.92
64876;BME280;51369;49.862;9.908;2023-03-31T08:47:49;96828.28;;;12.05;82.46
64876;BME280;51369;49.862;9.908;2023-03-31T08:50:20;96821.16;;;12.04;82.24
64876;BME280;51369;49.862;9.908;2023-03-31T08:52:52;96831.75;;;12.07;81.39
64876;BME280;51369;49.862;9.908;2023-03-31T08:55:28;96827.09;;;12.09;81.99
64876;BME280;51369;49.862;9.908;2023-03-31T08:58:26;96837.78;;;12.11;82.46
64876;BME280;51369;49.862;9.908;2023-03-31T09:01:01;96855.66;;;12.13;82.34
64876;BME280;51369;49.862;9.908;2023-03-31T09:04:12;96869.41;;;12.10;82.17
64876;BME280;51369;49.862;9.908;2023-03-31T09:09:43;96849.28;;;12.01;78.67
64876;BME280;51369;49.862;9.908;2023-03-31T09:12:17;96839.66;;;11.97;78.29
64876;BME280;51369;49.862;9.908;2023-03-31T09:14:50;96836.44;;;11.92;78.34
64876;BME280;51369;49.862;9.908;2023-03-31T09:19:54;96829.44;;;11.77;76.77
64876;BME280;51369;49.862;9.908;2023-03-31T09:22:37;96850.16;;;11.64;74.92
64876;BME280;51369;49.862;9.908;2023-03-31T09:25:30;96850.81;;;11.55;74.33
64876;BME280;51369;49.862;9.908;2023-03-31T09:27:56;96854.28;;;11.44;73.67
64876;BME280;51369;49.862;9.908;2023-03-31T09:30:27;96853.31;;;11.32;74.66
64876;BME280;51369;49.862;9.908;2023-03-31T09:35:46;96865.38;;;11.14;75.07
64876;BME280;51369;49.862;9.908;2023-03-31T09:38:13;96880.38;;;11.05;74.11
64876;BME280;51369;49.862;9.908;2023-03-31T09:40:40;96874.53;;;10.99;73.70
64876;BME280;51369;49.862;9.908;2023-03-31T09:43:16;96887.59;;;10.92;72.71
64876;BME280;51369;49.862;9.908;2023-03-31T09:45:43;96848.25;;;10.88;72.87
64876;BME280;51369;49.862;9.908;2023-03-31T09:48:13;96819.75;;;10.84;71.82
64876;BME280;51369;49.862;9.908;2023-03-31T09:50:43;96778.50;;;10.82;73.33
64876;BME280;51369;49.862;9.908;2023-03-31T09:53:17;96806.25;;;10.84;74.47
64876;BME280;51369;49.862;9.908;2023-03-31T09:55:50;96832.50;;;10.95;74.56
64876;BME280;51369;49.862;9.908;2023-03-31T09:58:16;96792.88;;;11.08;74.56
64876;BME280;51369;49.862;9.908;2023-03-31T10:00:54;96794.84;;;11.19;75.73
64876;BME280;51369;49.862;9.908;2023-03-31T10:03:21;96816.88;;;11.38;76.54
64876;BME280;51369;49.862;9.908;2023-03-31T10:05:51;96810.72;;;11.61;78.13
64876;BME280;51369;49.862;9.908;2023-03-31T10:08:31;96817.09;;;11.86;78.06
64876;BME280;51369;49.862;9.908;2023-03-31T10:13:28;96833.47;;;12.08;77.89
64876;BME280;51369;49.862;9.908;2023-03-31T10:16:02;96838.53;;;12.13;78.92
64876;BME280;51369;49.862;9.908;2023-03-31T10:18:35;96830.81;;;12.19;78.46
64876;BME280;51369;49.862;9.908;2023-03-31T10:21:04;96834.56;;;12.29;78.44
64876;BME280;51369;49.862;9.908;2023-03-31T10:23:32;96822.94;;;12.40;78.49
64876;BME280;51369;49.862;9.908;2023-03-31T10:25:59;96831.25;;;12.50;79.29
64876;BME280;51369;49.862;9.908;2023-03-31T10:28:26;96818.97;;;12.57;79.07
64876;BME280;51369;49.862;9.908;2023-03-31T10:30:57;96827.97;;;12.57;78.97
64876;BME280;51369;49.862;9.908;2023-03-31T10:33:27;96829.81;;;12.57;77.98
64876;BME280;51369;49.862;9.908;2023-03-31T10:35:58;96835.44;;;12.54;78.38
64876;BME280;51369;49.862;9.908;2023-03-31T10:38:38;96862.09;;;12.47;76.21
64876;BME280;51369;49.862;9.908;2023-03-31T10:41:07;96842.53;;;12.44;74.11
64876;BME280;51369;49.862;9.908;2023-03-31T10:43:38;96852.19;;;12.35;73.64
64876;BME280;51369;49.862;9.908;2023-03-31T10:46:05;96856.56;;;12.25;71.28
64876;BME280;51369;49.862;9.908;2023-03-31T10:48:33;96864.59;;;12.14;71.39
64876;BME280;51369;49.862;9.908;2023-03-31T10:51:03;96869.53;;;11.96;70.62
64876;BME280;51369;49.862;9.908;2023-03-31T10:53:38;96881.84;;;11.74;71.07
64876;BME280;51369;49.862;9.908;2023-03-31T10:56:24;96876.13;;;11.54;70.73
64876;BME280;51369;49.862;9.908;2023-03-31T10:58:59;96880.97;;;11.36;70.35
64876;BME280;51369;49.862;9.908;2023-03-31T11:04:39;96847.53;;;10.99;70.01
64876;BME280;51369;49.862;9.908;2023-03-31T11:13:23;96775.66;;;10.58;73.07
64876;BME280;51369;49.862;9.908;2023-03-31T11:19:15;96747.78;;;10.58;76.78
64876;BME280;51369;49.862;9.908;2023-03-31T11:21:58;96751.59;;;10.68;77.39
64876;BME280;51369;49.862;9.908;2023-03-31T11:24:49;96748.25;;;10.77;78.60
64876;BME280;51369;49.862;9.908;2023-03-31T11:27:33;96752.47;;;10.94;79.88
64876;BME280;51369;49.862;9.908;2023-03-31T11:32:47;96752.69;;;11.29;78.94
64876;BME280;51369;49.862;9.908;2023-03-31T11:35:28;96758.84;;;11.44;79.09
64876;BME280;51369;49.862;9.908;2023-03-31T11:38:14;96740.63;;;11.71;78.65
64876;BME280;51369;49.862;9.908;2023-03-31T11:43:29;96736.97;;;12.44;78.56
64876;BME280;51369;49.862;9.908;2023-03-31T11:46:07;96729.44;;;12.71;76.52
64876;BME280;51369;49.862;9.908;2023-03-31T11:48:48;96732.44;;;12.90;75.84
64876;BME280;51369;49.862;9.908;2023-03-31T11:51:20;96733.94;;;13.06;73.31
64876;BME280;51369;49.862;9.908;2023-03-31T11:53:47;96741.41;;;13.26;73.74
64876;BME280;51369;49.862;9.908;2023-03-31T11:56:16;96749.56;;;13.48;73.86
64876;BME280;51369;49.862;9.908;2023-03-31T11:58:51;96740.78;;;13.67;73.98
64876;BME280;51369;49.862;9.908;2023-03-31T12:01:27;96768.66;;;13.80;73.00
64876;BME280;51369;49.862;9.908;2023-03-31T12:04:15;96770.50;;;13.80;71.57
64876;BME280;51369;49.862;9.908;2023-03-31T12:06:46;96775.91;;;13.80;71.51
64876;BME280;51369;49.862;9.908;2023-03-31T12:09:21;96769.38;;;13.71;71.53
64876;BME280;51369;49.862;9.908;2023-03-31T12:12:03;96767.06;;;13.66;71.41
64876;BME280;51369;49.862;9.908;2023-03-31T12:14:40;96765.06;;;13.68;72.71
64876;BME280;51369;49.862;9.908;2023-03-31T12:17:13;96754.84;;;13.72;73.20
64876;BME280;51369;49.862;9.908;2023-03-31T12:22:14;96724.28;;;13.70;72.11
64876;BME280;51369;49.862;9.908;2023-03-31T12:24:41;96729.81;;;13.68;71.71
64876;BME280;51369;49.862;9.908;2023-03-31T12:27:13;96739.19;;;13.64;71.74
64876;BME280;51369;49.862;9.908;2023-03-31T12:29:52;96730.31;;;13.62;71.85
64876;BME280;51369;49.862;9.908;2023-03-31T12:32:25;96726.63;;;13.63;71.77
64876;BME280;51369;49.862;9.908;2023-03-31T12:35:06;96708.50;;;13.64;71.08
64876;BME280;51369;49.862;9.908;2023-03-31T12:40:33;96690.47;;;13.85;72.05
64876;BME280;51369;49.862;9.908;2023-03-31T12:43:07;96680.56;;;13.95;71.25
64876;BME280;51369;49.862;9.908;2023-03-31T12:52:02;96678.59;;;14.29;71.26
64876;BME280;51369;49.862;9.908;2023-03-31T12:57:30;96664.97;;;14.41;69.56
64876;BME280;51369;49.862;9.908;2023-03-31T13:02:31;96678.19;;;14.66;68.99
64876;BME280;51369;49.862;9.908;2023-03-31T13:04:57;96679.84;;;14.78;69.53
64876;BME280;51369;49.862;9.908;2023-03-31T13:09:58;96683.97;;;14.93;68.80
64876;BME280;51369;49.862;9.908;2023-03-31T13:13:15;96687.13;;;14.98;68.15
64876;BME280;51369;49.862;9.908;2023-03-31T13:15:50;96688.78;;;15.11;68.54
64876;BME280;51369;49.862;9.908;2023-03-31T13:18:20;96684.13;;;15.22;67.79
64876;BME280;51369;49.862;9.908;2023-03-31T13:20:57;96681.00;;;15.27;67.36
64876;BME280;51369;49.862;9.908;2023-03-31T13:23:23;96668.84;;;15.31;67.20
64876;BME280;51369;49.862;9.908;2023-03-31T13:25:57;96673.56;;;15.29;66.88
64876;BME280;51369;49.862;9.908;2023-03-31T13:33:43;96667.06;;;15.51;68.04
64876;BME280;51369;49.862;9.908;2023-03-31T13:36:20;96651.09;;;15.67;67.68
64876;BME280;51369;49.862;9.908;2023-03-31T13:41:40;96645.16;;;16.02;66.25
64876;BME280;51369;49.862;9.908;2023-03-31T13:56:12;96638.88;;;16.40;64.72
64876;BME280;51369;49.862;9.908;2023-03-31T14:01:29;96630.56;;;16.42;64.64
64876;BME280;51369;49.862;9.908;2023-03-31T14:07:07;96617.94;;;16.31;64.74
64876;BME280;51369;49.862;9.908;2023-03-31T14:09:35;96595.59;;;16.27;64.28
64876;BME280;51369;49.862;9.908;2023-03-31T14:12:21;96605.19;;;16.22;64.46
64876;BME280;51369;49.862;9.908;2023-03-31T14:14:47;96600.91;;;16.19;64.13
64876;BME280;51369;49.862;9.908;2023-03-31T14:17:13;96615.09;;;16.13;64.35
64876;BME280;51369;49.862;9.908;2023-03-31T14:25:32;96598.03;;;16.02;63.38
64876;BME280;51369;49.862;9.908;2023-03-31T14:28:12;96593.59;;;16.01;63.67
64876;BME280;51369;49.862;9.908;2023-03-31T14:30:56;96603.19;;;15.95;63.02
64876;BME280;51369;49.862;9.908;2023-03-31T14:33:37;96618.66;;;15.94;63.85
64876;BME280;51369;49.862;9.908;2023-03-31T14:38:50;96616.78;;;16.05;64.80
64876;BME280;51369;49.862;9.908;2023-03-31T14:41:20;96605.03;;;16.04;64.22
64876;BME280;51369;49.862;9.908;2023-03-31T14:43:55;96621.94;;;15.98;63.44
64876;BME280;51369;49.862;9.908;2023-03-31T14:46:21;96604.75;;;15.88;63.10
64876;BME280;51369;49.862;9.908;2023-03-31T14:48:49;96616.47;;;15.79;63.33
64876;BME280;51369;49.862;9.908;2023-03-31T14:51:17;96609.16;;;15.70;63.99
64876;BME280;51369;49.862;9.908;2023-03-31T14:53:43;96623.03;;;15.57;63.56
64876;BME280;51369;49.862;9.908;2023-03-31T14:56:13;96622.66;;;15.41;64.41
64876;BME280;51369;49.862;9.908;2023-03-31T14:58:42;96645.94;;;15.24;65.36
64876;BME280;51369;49.862;9.908;2023-03-31T15:01:14;96639.22;;;14.97;66.13
64876;BME280;51369;49.862;9.908;2023-03-31T15:03:42;96650.50;;;14.72;66.71
64876;BME280;51369;49.862;9.908;2023-03-31T15:06:08;96644.88;;;14.43;67.45
64876;BME280;51369;49.862;9.908;2023-03-31T15:08:36;96648.91;;;14.17;68.24
64876;BME280;51369;49.862;9.908;2023-03-31T15:11:13;96638.13;;;13.94;69.41
64876;BME280;51369;49.862;9.908;2023-03-31T15:13:43;96647.78;;;13.87;71.65
64876;BME280;51369;49.862;9.908;2023-03-31T15:16:19;96640.47;;;13.99;74.26
64876;BME280;51369;49.862;9.908;2023-03-31T15:18:45;96641.28;;;14.11;73.87
64876;BME280;51369;49.862;9.908;2023-03-31T15:21:20;96634.09;;;14.21;75.12